.
WxDataArchive / Data Records for 2007-10-20
2007-10-19 October 2007 2007-10-21

Data Records for Saturday, 20 October 2007

Time	Temp	Chill	HIndex	Humid	Dewpt	 Wind 	HiWind	WindDir	Rain 	Barom 
-----	----	-----	------	-----	-----	------	------	-------	-----	----- 
00:00	56.0	56.0	56.0	67	45.2	1	4	248	0.00	29.585 
00:05	56.0	56.0	56.0	67	45.2	2	6	248	0.00	29.586 
00:10	56.0	56.0	56.0	66	44.8	2	4	248	0.00	29.585 
00:15	56.0	56.0	56.0	67	45.2	2	4	248	0.00	29.589 
00:20	56.0	56.0	56.0	67	45.2	2	4	248	0.00	29.588 
00:25	56.0	56.0	56.0	67	45.2	2	7	248	0.00	29.589 
00:30	56.0	56.0	56.0	67	45.2	2	6	248	0.00	29.589 
00:35	56.0	56.0	56.0	66	44.8	3	7	248	0.00	29.590 
00:40	56.0	56.0	56.0	66	44.8	2	6	270	0.00	29.590 
00:45	56.0	56.0	56.0	66	44.8	2	6	270	0.00	29.590 
00:50	56.0	56.0	56.0	66	44.8	2	9	248	0.00	29.591 
00:55	55.9	55.9	55.9	66	44.7	2	6	248	0.00	29.592 
01:00	55.9	55.9	55.9	67	45.1	2	4	248	0.00	29.593 
01:05	55.9	55.9	55.9	67	45.1	1	6	248	0.00	29.597 
01:10	55.7	55.7	55.7	67	44.9	2	6	248	0.00	29.599 
01:15	55.7	55.7	55.7	67	44.9	2	5	248	0.00	29.599 
01:20	55.7	55.7	55.7	67	44.9	2	5	270	0.00	29.598 
01:25	55.7	55.7	55.7	67	44.9	2	5	248	0.00	29.599 
01:30	55.6	55.6	55.6	68	45.2	2	5	248	0.00	29.599 
01:35	55.4	55.4	55.4	68	45.0	2	5	248	0.00	29.604 
01:40	55.3	55.3	55.3	68	44.9	1	3	248	0.00	29.605 
01:45	55.1	55.1	55.1	69	45.1	2	4	248	0.00	29.607 
01:50	55.0	55.0	55.0	69	45.0	2	7	248	0.00	29.608 
01:55	54.8	54.8	54.8	69	44.8	1	4	248	0.00	29.609 
02:00	54.7	54.7	54.7	69	44.7	1	4	270	0.00	29.610 
02:05	54.5	54.5	54.5	70	44.9	1	4	248	0.00	29.609 
02:10	54.5	54.5	54.5	70	44.9	2	4	248	0.00	29.611 
02:15	54.4	54.4	54.4	70	44.8	2	5	248	0.00	29.612 
02:20	54.4	54.4	54.4	70	44.8	2	4	248	0.00	29.613 
02:25	54.2	54.2	54.2	70	44.6	2	6	248	0.00	29.619 
02:30	54.1	54.1	54.1	71	44.9	1	3	248	0.00	29.621 
02:35	54.1	54.1	54.1	71	44.9	1	4	248	0.00	29.622 
02:40	54.1	54.1	54.1	70	44.5	2	7	248	0.00	29.622 
02:45	53.9	53.9	53.9	71	44.7	2	5	248	0.00	29.622 
02:50	53.9	53.9	53.9	71	44.7	2	5	248	0.00	29.621 
02:55	53.9	53.9	53.9	71	44.7	2	5	248	0.00	29.622 
03:00	53.8	53.8	53.8	71	44.6	2	3	248	0.00	29.623 
03:05	53.6	53.6	53.6	71	44.4	1	3	248	0.00	29.625 
03:10	53.6	53.6	53.6	71	44.4	1	4	248	0.00	29.626 
03:15	53.5	53.5	53.5	72	44.7	1	3	248	0.00	29.626 
03:20	53.5	53.5	53.5	72	44.7	2	4	248	0.00	29.628 
03:25	53.5	53.5	53.5	72	44.7	2	4	248	0.00	29.632 
03:30	53.3	53.3	53.3	72	44.5	1	5	248	0.00	29.632 
03:35	53.3	53.3	53.3	72	44.5	1	4	248	0.00	29.637 
03:40	53.2	53.2	53.2	72	44.4	1	4	248	0.00	29.636 
03:45	53.2	53.2	53.2	72	44.4	1	4	248	0.00	29.640 
03:50	53.2	53.2	53.2	72	44.4	1	3	248	0.00	29.641 
03:55	53.1	53.1	53.1	73	44.7	1	3	248	0.00	29.642 
04:00	53.1	53.1	53.1	73	44.7	1	3	248	0.00	29.644 
04:05	52.9	52.9	52.9	73	44.5	1	2	248	0.00	29.644 
04:10	52.8	52.8	52.8	73	44.4	1	3	248	0.00	29.645 
04:15	52.8	52.8	52.8	73	44.4	0	2	248	0.00	29.648 
04:20	52.5	52.5	52.5	74	44.5	0	2	248	0.00	29.652 
04:25	52.3	52.3	52.3	75	44.6	1	3	248	0.00	29.656 
04:30	52.2	52.2	52.2	76	44.9	0	2	248	0.00	29.658 
04:35	52.0	52.0	52.0	76	44.7	1	2	248	0.00	29.659 
04:40	52.0	52.0	52.0	77	45.0	1	3	248	0.00	29.659 
04:45	52.0	52.0	52.0	77	45.0	1	3	270	0.00	29.663 
04:50	51.9	51.9	51.9	77	44.9	0	3	270	0.00	29.666 
04:55	51.9	51.9	51.9	77	44.9	0	2	248	0.00	29.669 
05:00	51.9	51.9	51.9	78	45.3	1	4	248	0.00	29.671 
05:05	51.9	51.9	51.9	78	45.3	1	3	248	0.00	29.673 
05:10	51.9	51.9	51.9	78	45.3	1	4	248	0.00	29.674 
05:15	52.0	52.0	52.0	78	45.4	1	5	248	0.00	29.674 
05:20	52.0	52.0	52.0	78	45.4	1	4	248	0.00	29.675 
05:25	52.0	52.0	52.0	78	45.4	1	4	248	0.00	29.677 
05:30	51.9	51.9	51.9	78	45.3	0	2	270	0.00	29.678 
05:35	51.9	51.9	51.9	78	45.3	2	5	248	0.00	29.683 
05:40	51.9	51.9	51.9	78	45.3	1	6	270	0.00	29.687 
05:45	51.9	51.9	51.9	78	45.3	0	3	248	0.00	29.690 
05:50	51.7	51.7	51.7	78	45.1	1	3	248	0.00	29.690 
05:55	51.7	51.7	51.7	78	45.1	1	2	225	0.00	29.692 
06:00	51.6	51.6	51.6	79	45.3	1	4	248	0.00	29.693 
06:05	51.6	51.6	51.6	79	45.3	1	3	225	0.00	29.695 
06:10	51.6	51.6	51.6	79	45.3	1	4	248	0.00	29.701 
06:15	51.6	51.6	51.6	79	45.3	1	3	248	0.00	29.704 
06:20	51.6	51.6	51.6	78	45.0	1	3	248	0.00	29.705 
06:25	51.6	51.6	51.6	78	45.0	1	3	248	0.00	29.706 
06:30	51.6	51.6	51.6	78	45.0	1	6	270	0.00	29.706 
06:35	51.6	51.6	51.6	78	45.0	1	4	292	0.00	29.708 
06:40	51.6	51.6	51.6	77	44.6	2	4	248	0.00	29.709 
06:45	51.6	51.6	51.6	77	44.6	1	4	248	0.00	29.709 
06:50	51.6	51.6	51.6	78	45.0	1	5	248	0.00	29.709 
06:55	51.4	51.4	51.4	78	44.8	2	6	270	0.00	29.717 
07:00	51.4	51.4	51.4	77	44.4	2	6	248	0.00	29.718 
07:05	51.3	51.3	51.3	77	44.3	1	3	292	0.00	29.720 
07:10	51.3	51.3	51.3	78	44.7	1	2	248	0.00	29.722 
07:15	51.1	51.1	51.1	78	44.5	1	4	270	0.00	29.722 
07:20	51.1	51.1	51.1	78	44.5	1	5	248	0.00	29.725 
07:25	51.1	51.1	51.1	78	44.5	1	4	248	0.00	29.729 
07:30	51.1	51.1	51.1	78	44.5	1	2	292	0.00	29.733 
07:35	51.1	51.1	51.1	77	44.1	1	3	248	0.00	29.735 
07:40	51.3	51.3	51.3	77	44.3	1	5	248	0.00	29.736 
07:45	51.3	51.3	51.3	77	44.3	2	4	292	0.00	29.737 
07:50	51.4	51.4	51.4	76	44.1	2	9	270	0.00	29.738 
07:55	51.6	51.6	51.6	76	44.3	1	4	248	0.00	29.742 
08:00	51.7	51.7	51.7	76	44.4	2	4	248	0.00	29.749 
08:05	51.9	51.9	51.9	75	44.2	1	5	248	0.00	29.750 
08:10	52.2	52.2	52.2	74	44.2	1	4	270	0.00	29.752 
08:15	52.3	52.3	52.3	73	43.9	1	4	248	0.00	29.751 
08:20	52.5	52.5	52.5	73	44.1	2	4	248	0.00	29.750 
08:25	52.8	52.8	52.8	73	44.4	1	4	248	0.00	29.752 
08:30	53.1	53.1	53.1	71	43.9	1	4	248	0.00	29.752 
08:35	53.5	53.5	53.5	70	44.0	1	3	248	0.00	29.752 
08:40	53.8	53.8	53.8	68	43.5	2	4	270	0.00	29.755 
08:45	54.2	54.2	54.2	67	43.5	2	5	270	0.00	29.758 
08:50	54.7	54.7	54.7	66	43.6	2	4	248	0.00	29.757 
08:55	55.0	55.0	55.0	66	43.9	1	3	248	0.00	29.757 
09:00	55.3	55.3	55.3	64	43.3	2	5	248	0.00	29.758 
09:05	55.4	55.4	55.4	63	43.0	3	7	248	0.00	29.762 
09:10	55.7	55.7	55.7	64	43.7	2	4	270	0.00	29.764 
09:15	56.2	56.2	56.2	64	44.2	2	4	292	0.00	29.765 
09:20	56.6	56.6	56.6	61	43.3	2	9	270	0.00	29.764 
09:25	56.6	56.6	56.6	60	42.9	2	5	270	0.00	29.764 
09:30	56.9	56.9	56.9	61	43.6	2	5	270	0.00	29.764 
09:35	57.3	57.3	57.3	59	43.1	2	4	248	0.00	29.764 
09:40	57.6	57.6	57.6	58	42.9	2	6	248	0.00	29.764 
09:45	58.1	58.1	58.1	60	44.3	1	4	248	0.00	29.765 
09:50	58.6	58.6	58.6	59	44.3	1	4	248	0.00	29.766 
09:55	58.9	58.9	58.9	55	42.8	2	7	248	0.00	29.766 
10:00	59.2	59.2	59.2	56	43.5	2	5	270	0.00	29.771 
10:05	59.3	59.3	59.3	54	42.7	3	7	270	0.00	29.775 
10:10	59.6	59.6	59.6	53	42.4	2	6	270	0.00	29.776 
10:15	60.2	60.2	60.2	53	43.0	2	4	248	0.00	29.776 
10:20	60.7	60.7	60.7	53	43.5	2	5	270	0.00	29.776 
10:25	60.9	60.9	60.9	49	41.6	3	5	248	0.00	29.778 
10:30	61.3	61.3	61.3	49	42.0	2	5	270	0.00	29.778 
10:35	61.8	61.8	61.8	48	41.9	2	4	248	0.00	29.780 
10:40	62.0	62.0	62.0	48	42.1	2	4	248	0.00	29.782 
10:45	62.3	62.3	62.3	48	42.4	2	5	248	0.00	29.784 
10:50	62.4	62.4	62.4	48	42.4	2	10	248	0.00	29.785 
10:55	62.4	62.4	62.4	46	41.3	3	7	248	0.00	29.791 
11:00	62.4	62.4	62.4	45	40.8	3	7	248	0.00	29.791 
11:05	62.9	62.9	62.9	45	41.2	3	6	270	0.00	29.790 
11:10	63.2	63.2	63.2	44	40.9	3	5	270	0.00	29.789 
11:15	63.2	63.2	63.2	43	40.3	3	9	248	0.00	29.791 
11:20	63.5	63.5	63.5	42	40.0	2	6	270	0.00	29.790 
11:25	63.9	63.9	63.9	43	41.0	2	5	248	0.00	29.787 
11:30	64.5	64.5	64.5	44	42.1	2	7	248	0.00	29.786 
11:35	64.7	64.7	64.7	42	41.1	2	4	270	0.00	29.783 
11:40	65.0	65.0	65.0	40	40.1	3	9	248	0.00	29.786 
11:45	65.2	65.2	65.2	37	38.3	3	9	248	0.00	29.786 
11:50	65.0	65.0	65.0	39	39.4	3	9	270	0.00	29.783 
11:55	65.3	65.3	65.3	36	37.7	3	7	248	0.00	29.783 
12:00	65.5	65.5	65.5	38	39.2	3	6	292	0.00	29.780 
12:05	65.8	65.8	65.8	35	37.4	3	7	248	0.00	29.776 
12:10	65.8	65.8	65.8	35	37.4	3	10	292	0.00	29.777 
12:15	66.0	66.0	66.0	35	37.6	3	6	248	0.00	29.778 
12:20	66.6	66.6	66.6	36	38.8	2	4	248	0.00	29.777 
12:25	66.9	66.9	66.9	35	38.4	2	5	248	0.00	29.777 
12:30	66.9	66.9	66.9	32	36.1	3	8	248	0.00	29.776 
12:35	66.8	66.8	66.8	32	36.0	4	6	248	0.00	29.776 
12:40	66.9	66.9	66.9	34	37.6	2	4	248	0.00	29.776 
12:45	67.3	67.3	67.3	34	38.0	2	6	292	0.00	29.776 
12:50	67.3	67.3	67.3	35	38.7	3	8	270	0.00	29.776 
12:55	67.3	67.3	67.3	34	38.0	3	10	248	0.00	29.774 
13:00	67.1	67.1	67.1	33	37.0	3	11	248	0.00	29.774 
13:05	67.4	67.4	67.4	34	38.1	3	5	248	0.00	29.773 
13:10	67.4	67.4	67.4	34	38.1	2	6	248	0.00	29.772 
13:15	67.9	67.9	67.9	34	38.5	2	5	248	0.00	29.773 
13:20	68.3	68.3	68.3	34	38.8	2	4	248	0.00	29.773 
13:25	68.1	68.1	68.1	34	38.7	3	6	248	0.00	29.774 
13:30	68.1	68.1	68.1	33	37.9	2	6	270	0.00	29.774 
13:35	68.1	68.1	68.1	34	38.7	2	6	225	0.00	29.775 
13:40	68.3	68.3	68.3	35	39.6	3	7	248	0.00	29.776 
13:45	68.3	68.3	68.3	36	40.3	2	5	225	0.00	29.776 
13:50	68.6	68.6	68.6	34	39.1	2	5	248	0.00	29.777 
13:55	68.3	68.3	68.3	33	38.1	4	12	248	0.00	29.777 
14:00	68.4	68.4	68.4	35	39.7	2	10	248	0.00	29.779 
14:05	68.8	68.8	68.8	35	40.0	2	6	270	0.00	29.780 
14:10	68.9	68.9	68.9	35	40.1	2	6	248	0.00	29.781 
14:15	68.9	68.9	68.9	35	40.1	2	7	270	0.00	29.782 
14:20	69.3	69.3	69.3	35	40.5	2	7	270	0.00	29.781 
14:25	68.9	68.9	68.9	34	39.4	3	6	270	0.00	29.777 
14:30	68.9	68.9	68.9	35	40.1	2	5	248	0.00	29.776 
14:35	69.3	69.3	69.3	35	40.5	2	5	248	0.00	29.775 
14:40	69.4	69.4	69.4	36	41.3	2	9	270	0.00	29.775 
14:45	70.1	70.1	70.1	33	39.7	2	4	248	0.00	29.774 
14:50	70.3	70.3	70.3	34	40.6	2	6	270	0.00	29.772 
14:55	70.4	70.4	70.4	32	39.1	2	6	270	0.00	29.773 
15:00	70.6	70.6	70.6	32	39.3	2	5	248	0.00	29.771 
15:05	70.8	70.8	70.8	32	39.5	2	5	248	0.00	29.772 
15:10	70.8	70.8	70.8	32	39.5	2	5	248	0.00	29.771 
15:15	70.9	70.9	70.9	32	39.6	1	3	248	0.00	29.768 
15:20	70.6	70.6	70.6	31	38.5	2	6	248	0.00	29.766 
15:25	70.4	70.4	70.4	32	39.1	2	5	248	0.00	29.770 
15:30	70.1	70.1	70.1	33	39.7	1	4	248	0.00	29.771 
15:35	69.9	69.9	69.9	33	39.5	2	5	270	0.00	29.770 
15:40	69.9	69.9	69.9	36	41.7	1	3	248	0.00	29.769 
15:45	70.1	70.1	70.1	35	41.2	0	3	338	0.00	29.770 
15:50	70.3	70.3	70.3	35	41.3	1	2	248	0.00	29.770 
15:55	70.3	70.3	70.3	32	39.0	2	9	248	0.00	29.772 
16:00	70.3	70.3	70.3	33	39.8	2	4	248	0.00	29.773 
16:05	70.1	70.1	70.1	33	39.7	2	12	248	0.00	29.773 
16:10	69.9	69.9	69.9	33	39.5	1	4	248	0.00	29.774 
16:15	69.8	69.8	69.8	33	39.4	1	4	248	0.00	29.773 
16:20	69.9	69.9	69.9	34	40.2	1	3	270	0.00	29.773 
16:25	69.9	69.9	69.9	33	39.5	1	3	248	0.00	29.774 
16:30	69.9	69.9	69.9	34	40.2	1	5	248	0.00	29.774 
16:35	69.8	69.8	69.8	35	40.9	1	4	248	0.00	29.774 
16:40	69.6	69.6	69.6	33	39.2	1	4	248	0.00	29.774 
16:45	69.4	69.4	69.4	34	39.8	0	2	248	0.00	29.774 
16:50	69.3	69.3	69.3	35	40.5	1	5	248	0.00	29.775 
16:55	69.3	69.3	69.3	35	40.5	1	4	248	0.00	29.776 
17:00	69.1	69.1	69.1	36	41.0	0	3	270	0.00	29.777 
17:05	68.9	68.9	68.9	37	41.5	0	1	270	0.00	29.776 
17:10	68.4	68.4	68.4	37	41.1	0	2	270	0.00	29.777 
17:15	68.3	68.3	68.3	38	41.7	0	1	270	0.00	29.779 
17:20	67.9	67.9	67.9	37	40.7	1	3	248	0.00	29.780 
17:25	67.8	67.8	67.8	37	40.6	1	3	248	0.00	29.780 
17:30	67.6	67.6	67.6	38	41.1	0	3	248	0.00	29.781 
17:35	67.1	67.1	67.1	39	41.3	0	1	270	0.00	29.785 
17:40	66.8	66.8	66.8	39	41.0	0	2	270	0.00	29.786 
17:45	66.4	66.4	66.4	40	41.3	0	2	270	0.00	29.787 
17:50	66.0	66.0	66.0	41	41.6	0	1	270	0.00	29.790 
17:55	65.6	65.6	65.6	42	41.9	0	0	---	0.00	29.791 
18:00	65.2	65.2	65.2	43	42.1	0	1	270	0.00	29.794 
18:05	64.7	64.7	64.7	43	41.7	0	0	---	0.00	29.794 
18:10	64.3	64.3	64.3	44	41.9	0	0	---	0.00	29.796 
18:15	64.0	64.0	64.0	45	42.2	0	0	---	0.00	29.797 
18:20	63.5	63.5	63.5	46	42.3	0	0	---	0.00	29.798 
18:25	63.2	63.2	63.2	46	42.1	0	0	---	0.00	29.800 
18:30	62.7	62.7	62.7	48	42.7	0	0	---	0.00	29.803 
18:35	62.4	62.4	62.4	49	43.0	0	0	---	0.00	29.806 
18:40	62.0	62.0	62.0	49	42.6	0	0	---	0.00	29.811 
18:45	61.6	61.6	61.6	50	42.8	0	1	270	0.00	29.812 
18:50	61.3	61.3	61.3	50	42.5	0	1	270	0.00	29.814 
18:55	61.2	61.2	61.2	50	42.4	0	0	---	0.00	29.814 
19:00	61.0	61.0	61.0	51	42.7	0	1	270	0.00	29.817 
19:05	60.9	60.9	60.9	52	43.2	0	0	---	0.00	29.821 
19:10	60.5	60.5	60.5	52	42.8	0	0	---	0.00	29.819 
19:15	60.2	60.2	60.2	52	42.5	0	0	---	0.00	29.823 
19:20	59.9	59.9	59.9	53	42.7	0	0	---	0.00	29.825 
19:25	59.6	59.6	59.6	53	42.4	0	0	---	0.00	29.825 
19:30	59.3	59.3	59.3	54	42.7	0	0	---	0.00	29.827 
19:35	58.9	58.9	58.9	55	42.8	0	0	---	0.00	29.829 
19:40	58.7	58.7	58.7	56	43.0	0	1	270	0.00	29.830 
19:45	58.6	58.6	58.6	55	42.5	0	0	---	0.00	29.830 
19:50	58.6	58.6	58.6	56	43.0	0	0	---	0.00	29.831 
19:55	58.4	58.4	58.4	56	42.8	0	0	---	0.00	29.832 
20:00	58.3	58.3	58.3	56	42.7	0	0	---	0.00	29.831 
20:05	58.1	58.1	58.1	56	42.5	0	0	---	0.00	29.830 
20:10	57.8	57.8	57.8	57	42.7	0	0	---	0.00	29.830 
20:15	57.6	57.6	57.6	58	42.9	0	0	---	0.00	29.832 
20:20	57.6	57.6	57.6	58	42.9	0	1	270	0.00	29.831 
20:25	58.0	58.0	58.0	57	42.9	0	0	---	0.00	29.831 
20:30	58.1	58.1	58.1	57	42.9	0	0	---	0.00	29.830 
20:35	58.4	58.4	58.4	57	43.2	0	0	---	0.00	29.831 
20:40	58.4	58.4	58.4	57	43.2	0	1	270	0.00	29.832 
20:45	58.4	58.4	58.4	57	43.2	0	1	270	0.00	29.835 
20:50	58.4	58.4	58.4	57	43.2	0	0	---	0.00	29.836 
20:55	58.3	58.3	58.3	57	43.1	0	1	270	0.00	29.839 
21:00	58.1	58.1	58.1	57	42.9	0	0	---	0.00	29.841 
21:05	58.1	58.1	58.1	57	42.9	0	1	270	0.00	29.839 
21:10	58.1	58.1	58.1	57	42.9	0	1	270	0.00	29.840 
21:15	58.1	58.1	58.1	57	42.9	0	1	270	0.00	29.841 
21:20	58.1	58.1	58.1	57	42.9	0	1	270	0.00	29.840 
21:25	58.1	58.1	58.1	58	43.4	0	1	270	0.00	29.840 
21:30	58.1	58.1	58.1	58	43.4	0	1	270	0.00	29.840 
21:35	58.1	58.1	58.1	58	43.4	0	1	270	0.00	29.840 
21:40	58.0	58.0	58.0	58	43.3	0	1	270	0.00	29.841 
21:45	58.0	58.0	58.0	58	43.3	0	1	270	0.00	29.842 
21:50	58.1	58.1	58.1	58	43.4	0	1	270	0.00	29.843 
21:55	58.1	58.1	58.1	58	43.4	0	1	270	0.00	29.843 
22:00	58.1	58.1	58.1	59	43.8	0	2	270	0.00	29.843 
22:05	58.1	58.1	58.1	58	43.4	0	3	270	0.00	29.843 
22:10	58.1	58.1	58.1	58	43.4	0	2	270	0.00	29.842 
22:15	58.4	58.4	58.4	58	43.7	0	2	270	0.00	29.841 
22:20	58.6	58.6	58.6	57	43.4	1	3	270	0.00	29.841 
22:25	59.0	59.0	59.0	56	43.3	0	3	270	0.00	29.840 
22:30	59.2	59.2	59.2	56	43.5	1	3	270	0.00	29.839 
22:35	59.2	59.2	59.2	56	43.5	1	4	270	0.00	29.840 
22:40	59.2	59.2	59.2	56	43.5	1	3	180	0.00	29.841 
22:45	59.2	59.2	59.2	55	43.0	1	4	248	0.00	29.840 
22:50	59.3	59.3	59.3	55	43.1	0	3	248	0.00	29.840 
22:55	59.3	59.3	59.3	55	43.1	1	4	248	0.00	29.839 
23:00	59.3	59.3	59.3	55	43.1	1	4	225	0.00	29.839 
23:05	59.2	59.2	59.2	55	43.0	1	3	248	0.00	29.836 
23:10	59.2	59.2	59.2	56	43.5	1	4	248	0.00	29.837 
23:15	59.0	59.0	59.0	55	42.9	1	4	248	0.00	29.837 
23:20	59.0	59.0	59.0	55	42.9	1	2	248	0.00	29.837 
23:25	59.2	59.2	59.2	55	43.0	1	4	248	0.00	29.836 
23:30	59.0	59.0	59.0	55	42.9	0	2	248	0.00	29.835 
23:35	58.9	58.9	58.9	55	42.8	1	3	248	0.00	29.835 
23:40	59.0	59.0	59.0	55	42.9	1	5	248	0.00	29.835 
23:45	59.2	59.2	59.2	55	43.0	1	5	292	0.00	29.835 
23:50	59.3	59.3	59.3	55	43.1	1	3	270	0.00	29.836 
23:55	59.3	59.3	59.3	54	42.7	1	5	248	0.00	29.836 

CoCoRaHS
IN-AL-39
A2 Web Hosting
Creative Commons License
GoDaddy
Look for:

loaded 2017-12-11 06:55:18 • last modified 2010-11-18 10:43:29
Privacy PolicyDisclaimer
• wx.awcolley.com is powered by PmWiki v.2002016 •
• all content (unless otherwise noted) © 2017 A W Colley